»·PEaware :: UAL576 KLAS-KSAN

UAL576 :: KLAS-KSAN

FLIGHT INFORMATION

Flight Status: Arrived
Operator:
United Airlines
More flights by this operator :: More flights under this callsign
Pilot: Anonymous 8274 (8274)
Aircraft: BOEING 737-200
(B732)
More flights by this aircraft type
Origin: KLAS McCarran Intl
United States
Destination: KSAN San Diego Intl-Lindbergh
United States
More flights between these airports :: More routes between these airports
Route: +MCCRN5 TNP BARET5
File this flight plan on PilotEdge
Remarks:
Altitude:
(Current/Filed)
30,000ft
Speed:
(Current/Filed)
460kts
Departed: 12-Jan-18 10:05 PM
Arrived: 12-Jan-18 10:59 PM
Distance/Time
Traveled:
225nm/0:54
Distance/Time
To Go:
Arrived

Flight Plot

Page will automatically refresh every two minutes.

Flight plan parsing failed; only flown route is shown


Map Options




Map Legend


Flown Route
Filed Route
Departure Airport
Arrival Airport
Navaid (VOR, NDB)
Fix

Horizontal Profiles

Position Reports

Time Latitude Longitude Heading Altitude Ground
Speed
12-Jan-18 21:29 36.079883 -115.139541 355 2120ft 0kts
12-Jan-18 21:30 36.079883 -115.139541 355 2120ft 0kts
12-Jan-18 21:31 36.079883 -115.139541 355 2120ft 0kts
12-Jan-18 21:32 36.079883 -115.139541 355 2120ft 0kts
12-Jan-18 21:33 36.079883 -115.139541 355 2120ft 0kts
12-Jan-18 21:34 36.079883 -115.139541 355 2120ft 0kts
12-Jan-18 21:35 36.079883 -115.139541 355 2120ft 0kts
12-Jan-18 21:36 36.079883 -115.139541 355 2120ft 0kts
12-Jan-18 21:37 36.079883 -115.139541 355 2120ft 0kts
12-Jan-18 21:38 36.079883 -115.139541 355 2120ft 0kts
12-Jan-18 21:39 36.079883 -115.139541 355 2120ft 0kts
12-Jan-18 21:40 36.079883 -115.139541 355 2120ft 0kts
12-Jan-18 21:41 36.079883 -115.139541 355 2120ft 0kts
12-Jan-18 21:42 36.079883 -115.139541 355 2120ft 0kts
12-Jan-18 21:43 36.079883 -115.139541 355 2120ft 0kts
12-Jan-18 21:44 36.079883 -115.139541 355 2120ft 0kts
12-Jan-18 21:45 36.079883 -115.139541 355 2120ft 0kts
12-Jan-18 21:46 36.079883 -115.139541 355 2120ft 0kts
12-Jan-18 21:47 36.079883 -115.139541 355 2120ft 0kts
12-Jan-18 21:48 36.079883 -115.139541 355 2120ft 0kts
12-Jan-18 21:49 36.079554 -115.139489 353 2120ft 1kts
12-Jan-18 21:50 36.079315 -115.139001 240 2120ft 2kts
12-Jan-18 21:51 36.079383 -115.138898 228 2120ft 0kts
12-Jan-18 21:52 36.079383 -115.138898 228 2120ft 0kts
12-Jan-18 21:53 36.079120 -115.139172 222 2120ft 5kts
12-Jan-18 21:54 36.079077 -115.139221 222 2120ft 0kts
12-Jan-18 21:55 36.079077 -115.139221 222 2120ft 0kts
12-Jan-18 21:56 36.079077 -115.139221 222 2120ft 0kts
12-Jan-18 21:57 36.079077 -115.139221 222 2120ft 0kts
12-Jan-18 21:58 36.079077 -115.139221 222 2120ft 0kts
12-Jan-18 21:59 36.079077 -115.139221 222 2120ft 0kts
12-Jan-18 22:00 36.079077 -115.139221 222 2120ft 0kts
12-Jan-18 22:01 36.079077 -115.139221 222 2120ft 0kts
12-Jan-18 22:02 36.079077 -115.139221 222 2120ft 0kts
12-Jan-18 22:03 36.078922 -115.139399 222 2120ft 5kts
12-Jan-18 22:04 36.078250 -115.135359 89 2120ft 23kts
12-Jan-18 22:05 36.078259 -115.125978 90 2120ft 30kts
12-Jan-18 22:06 36.077448 -115.121563 131 2120ft 0kts
12-Jan-18 22:07 36.077448 -115.121563 131 2120ft 0kts
12-Jan-18 22:08 36.077448 -115.121563 131 2120ft 0kts
12-Jan-18 22:09 36.077448 -115.121563 131 2120ft 0kts
12-Jan-18 22:10 36.076615 -115.121300 177 2120ft 7kts
12-Jan-18 22:11 36.076408 -115.126474 269 2120ft 91kts
12-Jan-18 22:12 36.076928 -115.176593 273 3560ft 163kts
12-Jan-18 22:13 36.076869 -115.243939 262 4919ft 245kts
12-Jan-18 22:14 36.021202 -115.292588 201 7914ft 281kts
12-Jan-18 22:15 35.943398 -115.287991 152 10325ft 330kts
12-Jan-18 22:16 35.858305 -115.244074 166 12819ft 352kts
12-Jan-18 22:17 35.760586 -115.221367 175 15257ft 366kts
12-Jan-18 22:18 35.657889 -115.209180 176 17419ft 379kts
12-Jan-18 22:19 35.551468 -115.204289 179 19341ft 390kts
12-Jan-18 22:20 35.441626 -115.201915 181 21049ft 400kts
12-Jan-18 22:21 35.329652 -115.194767 175 22548ft 411kts
12-Jan-18 22:22 35.214736 -115.181039 177 23834ft 421kts
12-Jan-18 22:23 35.097085 -115.172601 189 24858ft 427kts
12-Jan-18 22:24 34.991252 -115.230918 211 25878ft 422kts
12-Jan-18 22:25 34.886205 -115.278773 199 26794ft 429kts
12-Jan-18 22:26 34.778193 -115.321274 201 27529ft 433kts
12-Jan-18 22:27 34.663467 -115.366462 202 28225ft 436kts
12-Jan-18 22:28 34.550446 -115.416806 206 29325ft 426kts
12-Jan-18 22:29 34.440810 -115.471576 206 29911ft 430kts
12-Jan-18 22:30 34.329912 -115.526733 206 30385ft 435kts
12-Jan-18 22:31 34.216423 -115.583247 206 30388ft 450kts
12-Jan-18 22:32 34.136959 -115.670014 249 30410ft 432kts
12-Jan-18 22:33 34.081188 -115.759489 214 30405ft 442kts
12-Jan-18 22:34 33.967655 -115.808890 188 30298ft 451kts
12-Jan-18 22:35 33.863145 -115.830828 201 30220ft 442kts
12-Jan-18 22:36 33.757236 -115.873356 202 30217ft 440kts
12-Jan-18 22:37 33.643580 -115.917085 198 27971ft 436kts
12-Jan-18 22:38 33.528378 -115.949478 194 25788ft 424kts
12-Jan-18 22:39 33.434290 -116.015184 234 24217ft 382kts
12-Jan-18 22:40 33.377903 -116.119130 247 23862ft 376kts
12-Jan-18 22:41 33.332591 -116.223460 224 21384ft 388kts
12-Jan-18 22:42 33.249046 -116.300104 221 19358ft 379kts
12-Jan-18 22:43 33.170653 -116.380219 225 17333ft 369kts
12-Jan-18 22:44 33.097728 -116.460808 225 15389ft 360kts
12-Jan-18 22:45 33.026521 -116.541708 225 13572ft 349kts
12-Jan-18 22:46 32.958969 -116.620866 225 12006ft 331kts
12-Jan-18 22:47 32.903731 -116.678820 200 12011ft 319kts
12-Jan-18 22:48 32.824326 -116.688548 178 11467ft 286kts
12-Jan-18 22:49 32.749279 -116.686301 178 10189ft 281kts
12-Jan-18 22:50 32.695833 -116.735829 272 8815ft 273kts
12-Jan-18 22:51 32.708352 -116.823109 282 7550ft 267kts
12-Jan-18 22:52 32.719291 -116.888187 282 6613ft 263kts
12-Jan-18 22:53 32.733458 -116.972467 282 5433ft 257kts
12-Jan-18 22:54 32.747319 -117.053883 282 4988ft 245kts
12-Jan-18 22:55 32.760847 -117.132572 282 4988ft 244kts
12-Jan-18 22:56 32.775746 -117.211587 290 4933ft 243kts
12-Jan-18 22:57 32.794438 -117.273675 290 3791ft 239kts
12-Jan-18 22:58 32.820596 -117.360479 291 2442ft 236kts
12-Jan-18 22:59 32.823696 -117.403970 241 1861ft 235kts
12-Jan-18 23:00 32.778088 -117.404964 119 1831ft 192kts
12-Jan-18 23:01 32.769955 -117.344736 110 1860ft 187kts
12-Jan-18 23:02 32.756794 -117.289418 103 1742ft 154kts
12-Jan-18 23:03 32.746503 -117.243499 104 796ft 140kts
12-Jan-18 23:04 32.736096 -117.200118 105 51ft 135kts
12-Jan-18 23:05 32.731524 -117.184781 199 21ft 0kts
12-Jan-18 23:06 32.731524 -117.184781 199 21ft 0kts
12-Jan-18 23:07 32.732234 -117.188488 284 22ft 20kts
12-Jan-18 23:08 32.733985 -117.195798 285 21ft 24kts
12-Jan-18 23:09 32.734497 -117.203445 231 19ft 0kts
12-Jan-18 23:10 32.734497 -117.203445 231 19ft 0kts
12-Jan-18 23:11 32.734497 -117.203445 231 19ft 0kts
12-Jan-18 23:12 32.734497 -117.203445 231 19ft 0kts
12-Jan-18 23:13 32.734497 -117.203445 231 19ft 0kts
12-Jan-18 23:14 32.734497 -117.203445 231 19ft 0kts
12-Jan-18 23:15 32.734497 -117.203445 231 19ft 0kts
12-Jan-18 23:16 32.734497 -117.203445 231 19ft 0kts
12-Jan-18 23:17 32.734497 -117.203445 231 19ft 0kts
12-Jan-18 23:18 32.734497 -117.203445 231 19ft 0kts
12-Jan-18 23:19 32.731524 -117.184781 199 21ft 0kts

Navigation Log

Ident Type
Flight plan parsing failed, navigation log unavailable